Time;durP1;ratioP1;P1;durP2;ratioP2;P2;SDS_P1;SDS_P2;PMS_P1;PMS_P2;Temp;Humidity;BMP_temperature;BMP_pressure;BME280_temperature;BME280_humidity;BME280_pressure;Samples;Min_cycle;Max_cycle;Signal;HPM_P1;HPM_P2
2022/10/09 00:01:54;;;;;;;;;;;21.90;99.90;;;;;;4995979;28;20012;-75
2022/10/09 00:04:21;;;;;;;;;;;22.00;99.90;;;;;;4995726;28;20020;-75
2022/10/09 00:06:48;;;;;;;;;;;21.90;99.90;;;;;;4995562;28;20017;-75
2022/10/09 00:09:15;;;;;;;;;;;21.90;99.90;;;;;;4995927;28;20016;-75
2022/10/09 00:11:42;;;;;;;;;;;21.90;99.90;;;;;;4995795;28;19929;-75
2022/10/09 00:14:09;;;;;;;;;;;22.00;99.90;;;;;;4995547;28;19980;-75
2022/10/09 00:16:37;;;;;;;;;;;21.90;99.90;;;;;;4995497;28;20472;-75
2022/10/09 00:19:04;;;;;;;;;;;22.00;99.90;;;;;;4995033;28;20024;-75
2022/10/09 00:21:31;;;;;;;;;;;21.90;99.90;;;;;;4995534;28;20020;-75
2022/10/09 00:23:59;;;;;;;;;;;22.00;99.90;;;;;;4995340;28;20025;-75
2022/10/09 00:26:25;;;;;;;;;;;22.00;99.90;;;;;;4995253;28;20281;-75
2022/10/09 00:28:52;;;;;;;;;;;22.00;99.90;;;;;;4995591;28;19925;-75
2022/10/09 00:31:19;;;;;;;;;;;21.90;99.90;;;;;;4995355;28;19932;-75
2022/10/09 06:20:35;;;;;;;;;;;21.90;99.90;;;;;;4984018;28;20459;-82
2022/10/09 06:23:02;;;;;;;;;;;21.90;99.90;;;;;;4985383;28;20389;-82
2022/10/09 06:25:29;;;;;;;;;;;21.90;99.90;;;;;;4984888;28;19933;-82
2022/10/09 06:27:55;;;;;;;;;;;21.90;99.90;;;;;;4984764;28;19926;-82
2022/10/09 06:30:22;;;;;;;;;;;21.90;99.90;;;;;;4985770;28;19968;-82
2022/10/09 06:32:49;;;;;;;;;;;21.90;99.90;;;;;;4988334;28;19961;-81
2022/10/09 06:35:15;;;;;;;;;;;21.90;99.90;;;;;;4990974;28;19926;-80
2022/10/09 06:37:44;;;;;;;;;;;21.90;99.90;;;;;;4992743;28;19930;-80
2022/10/09 06:40:10;;;;;;;;;;;21.90;99.90;;;;;;4991990;28;19926;-78
2022/10/09 06:42:37;;;;;;;;;;;21.90;99.90;;;;;;4979177;28;20032;-77
2022/10/09 06:45:04;;;;;;;;;;;21.90;99.90;;;;;;4978096;28;20013;-75
2022/10/09 06:47:31;;;;;;;;;;;21.80;99.90;;;;;;4977794;28;19973;-75
2022/10/09 06:49:57;;;;;;;;;;;21.90;99.90;;;;;;4977769;28;20025;-74
2022/10/09 06:52:24;;;;;;;;;;;21.90;99.90;;;;;;4977847;28;19930;-74
2022/10/09 06:54:52;;;;;;;;;;;21.90;99.90;;;;;;4977615;28;19926;-74
2022/10/09 06:57:19;;;;;;;;;;;21.90;99.90;;;;;;4977913;28;20349;-75
2022/10/09 06:59:48;;;;;;;;;;;21.90;99.90;;;;;;4977803;28;20012;-74
2022/10/09 07:02:15;;;;;;;;;;;21.90;99.90;;;;;;4977476;28;19979;-74
2022/10/09 07:04:42;;;;;;;;;;;21.90;99.90;;;;;;4977729;28;20025;-74
2022/10/09 07:07:09;;;;;;;;;;;21.90;99.90;;;;;;4977603;28;20013;-75
2022/10/09 07:09:35;;;;;;;;;;;21.90;99.90;;;;;;4977608;28;20023;-74
2022/10/09 07:12:04;;;;;;;;;;;21.80;99.90;;;;;;4978101;28;19969;-77
2022/10/09 07:14:30;;;;;;;;;;;21.90;99.90;;;;;;4977664;28;20017;-77
2022/10/09 07:16:57;;;;;;;;;;;21.80;99.90;;;;;;4980327;28;20017;-80
2022/10/09 07:19:23;;;;;;;;;;;21.80;99.90;;;;;;4980831;28;20014;-81
2022/10/09 07:21:51;;;;;;;;;;;21.80;99.90;;;;;;4981122;28;20020;-81
2022/10/09 07:24:19;;;;;;;;;;;21.80;99.90;;;;;;4982088;28;20309;-78
2022/10/09 07:26:46;;;;;;;;;;;21.80;99.90;;;;;;4980874;28;19926;-81
2022/10/09 07:29:15;;;;;;;;;;;21.80;99.90;;;;;;4980429;28;20425;-80
2022/10/09 07:31:41;;;;;;;;;;;21.80;99.90;;;;;;4981063;28;20020;-81
2022/10/09 07:34:08;;;;;;;;;;;21.80;99.90;;;;;;4981573;28;19981;-79
2022/10/09 07:36:35;;;;;;;;;;;21.80;99.90;;;;;;4978451;28;20424;-78
2022/10/09 07:39:02;;;;;;;;;;;21.80;99.90;;;;;;4978443;28;20032;-78
2022/10/09 07:41:29;;;;;;;;;;;21.80;99.90;;;;;;4978180;28;20348;-79
2022/10/09 07:43:56;;;;;;;;;;;21.80;99.90;;;;;;4980757;28;19998;-80
2022/10/09 07:46:25;;;;;;;;;;;21.80;99.90;;;;;;4980584;28;19993;-80
2022/10/09 07:48:52;;;;;;;;;;;21.80;99.90;;;;;;4980078;28;19965;-79
2022/10/09 07:51:20;;;;;;;;;;;21.80;99.90;;;;;;4980066;28;20009;-81
2022/10/09 07:53:47;;;;;;;;;;;21.80;99.90;;;;;;4980255;28;20024;-79
2022/10/09 07:56:14;;;;;;;;;;;21.80;99.90;;;;;;4980517;28;19972;-79
2022/10/09 07:58:41;;;;;;;;;;;21.70;99.90;;;;;;4981064;28;19977;-79
2022/10/09 08:01:08;;;;;;;;;;;21.80;99.90;;;;;;4981739;28;19932;-79
2022/10/09 08:03:36;;;;;;;;;;;21.70;99.90;;;;;;4982923;28;19926;-81
2022/10/09 08:06:03;;;;;;;;;;;21.80;99.90;;;;;;4981308;28;19933;-80
2022/10/09 08:08:30;;;;;;;;;;;21.80;99.90;;;;;;4981078;28;20419;-82
2022/10/09 08:10:57;;;;;;;;;;;21.80;99.80;;;;;;4981518;28;20408;-81
2022/10/09 08:13:24;;;;;;;;;;;21.80;99.80;;;;;;4983409;28;19998;-79
2022/10/09 08:15:50;;;;;;;;;;;21.80;99.70;;;;;;4978545;28;20372;-78
2022/10/09 08:18:17;;;;;;;;;;;21.80;99.60;;;;;;4976547;28;20016;-76
2022/10/09 08:20:45;;;;;;;;;;;21.80;99.50;;;;;;4976056;28;19926;-76
2022/10/09 08:23:12;;;;;;;;;;;21.80;99.40;;;;;;4976039;28;20449;-76
2022/10/09 08:25:38;;;;;;;;;;;21.80;99.40;;;;;;4976198;28;20464;-76
2022/10/09 09:56:09;;;;;;;;;;;21.20;89.90;;;;;;5430319;23;19933;-74
2022/10/09 09:58:36;;;;;;;;;;;21.20;89.90;;;;;;4998573;28;20013;-74
2022/10/09 10:01:05;;;;;;;;;;;21.20;88.70;;;;;;4998420;28;20017;-74
2022/10/09 10:03:32;;;;;;;;;;;21.20;88.20;;;;;;4998378;28;19926;-74
2022/10/09 10:05:59;;;;;;;;;;;21.20;87.60;;;;;;4998291;28;20016;-74
2022/10/09 10:08:27;;;;;;;;;;;21.20;87.00;;;;;;4999338;28;19925;-74
2022/10/09 10:10:54;;;;;;;;;;;21.20;86.50;;;;;;5021997;23;19926;-77
2022/10/09 10:13:27;;;;;;;;;;;21.20;86.30;;;;;;4997883;28;20344;-77
2022/10/09 10:15:54;;;;;;;;;;;21.20;85.80;;;;;;4997840;28;20024;-77
2022/10/09 10:18:22;;;;;;;;;;;21.20;85.40;;;;;;4998103;28;20028;-77
2022/10/09 10:20:50;;;;;;;;;;;21.20;85.10;;;;;;4997897;28;19969;-77
2022/10/09 10:23:24;;;;;;;;;;;21.20;84.60;;;;;;4997977;28;20017;-77
2022/10/09 10:25:52;;;;;;;;;;;21.20;84.30;;;;;;4997888;28;20016;-77
2022/10/09 10:28:20;;;;;;;;;;;21.20;84.10;;;;;;4998102;28;19980;-77
2022/10/09 10:30:49;;;;;;;;;;;21.20;83.70;;;;;;4997791;28;20013;-77
2022/10/09 10:33:18;;;;;;;;;;;21.20;83.40;;;;;;4997464;28;20484;-77
2022/10/09 10:35:45;;;;;;;;;;;21.20;83.10;;;;;;4998007;28;20021;-77
2022/10/09 10:38:13;;;;;;;;;;;21.20;82.80;;;;;;4997853;28;19973;-76
2022/10/09 10:40:43;;;;;;;;;;;21.30;82.60;;;;;;4998094;28;20356;-79
2022/10/09 10:43:25;;;;;;;;;;;21.30;82.40;;;;;;5000631;28;19926;-77
2022/10/09 10:45:59;;;;;;;;;;;21.30;82.10;;;;;;4999438;28;20417;-78
2022/10/09 10:48:27;;;;;;;;;;;21.30;81.70;;;;;;4998170;28;19932;-78
2022/10/09 10:51:00;;;;;;;;;;;21.30;81.10;;;;;;4998555;28;20304;-79
2022/10/09 10:53:34;;;;;;;;;;;21.30;80.90;;;;;;4998888;28;20005;-78
2022/10/09 10:56:04;;;;;;;;;;;21.20;80.60;;;;;;4998962;28;20025;-79
2022/10/09 10:58:38;;;;;;;;;;;21.20;80.00;;;;;;4999090;28;20012;-78
2022/10/09 11:01:14;;;;;;;;;;;21.20;79.60;;;;;;4997633;28;20444;-78
2022/10/09 11:03:47;;;;;;;;;;;21.20;79.30;;;;;;4996818;28;19926;-78
2022/10/09 11:06:16;;;;;;;;;;;21.20;78.90;;;;;;4997860;28;19977;-78
2022/10/09 11:08:51;;;;;;;;;;;21.20;78.60;;;;;;4997944;28;20013;-78
2022/10/09 11:11:20;;;;;;;;;;;21.20;78.30;;;;;;4998033;28;20421;-77
2022/10/09 11:13:52;;;;;;;;;;;21.20;78.00;;;;;;4997440;28;20009;-78
2022/10/09 11:16:28;;;;;;;;;;;21.20;77.60;;;;;;4997172;28;20017;-75
2022/10/09 11:19:03;;;;;;;;;;;21.20;77.40;;;;;;4996962;28;20028;-75
2022/10/09 11:21:37;;;;;;;;;;;21.20;77.20;;;;;;4996896;28;20013;-77
2022/10/09 11:24:12;;;;;;;;;;;21.20;77.10;;;;;;4996923;28;20016;-76
2022/10/09 11:26:43;;;;;;;;;;;21.30;77.10;;;;;;4996529;28;20024;-77
2022/10/09 11:29:14;;;;;;;;;;;21.30;76.90;;;;;;4996534;28;19971;-75
2022/10/09 11:31:44;;;;;;;;;;;21.30;76.70;;;;;;4997288;28;19925;-78
2022/10/09 11:34:14;;;;;;;;;;;21.30;76.50;;;;;;4996775;28;20020;-78
2022/10/09 11:36:42;;;;;;;;;;;21.30;76.30;;;;;;4996697;28;19926;-78
2022/10/09 11:39:13;;;;;;;;;;;21.30;76.20;;;;;;4996647;28;20021;-77
2022/10/09 11:41:40;;;;;;;;;;;21.30;76.00;;;;;;4996426;28;19961;-77
2022/10/09 11:44:13;;;;;;;;;;;21.40;76.10;;;;;;4996454;28;20013;-77
2022/10/09 11:46:46;;;;;;;;;;;21.40;76.10;;;;;;4996421;28;20032;-77
2022/10/09 11:49:19;;;;;;;;;;;21.40;75.90;;;;;;4996711;28;20016;-78
2022/10/09 11:51:49;;;;;;;;;;;21.40;75.90;;;;;;4996428;28;20020;-78
2022/10/09 11:54:18;;;;;;;;;;;21.50;75.90;;;;;;5001771;28;20017;-78
2022/10/09 11:56:52;;;;;;;;;;;21.50;75.80;;;;;;4999697;28;19949;-81
2022/10/09 11:59:24;;;;;;;;;;;21.50;75.80;;;;;;5000170;28;20025;-81
2022/10/09 12:01:52;;;;;;;;;;;21.60;75.70;;;;;;5000539;28;19933;-82
2022/10/09 12:04:22;;;;;;;;;;;21.60;75.70;;;;;;5001742;28;19926;-78
2022/10/09 12:06:52;;;;;;;;;;;21.60;75.70;;;;;;5003240;28;19925;-79
2022/10/09 12:09:23;;;;;;;;;;;21.60;75.60;;;;;;5007247;28;19925;-79
2022/10/09 12:11:58;;;;;;;;;;;21.60;75.40;;;;;;5005627;28;19925;-79
2022/10/09 12:14:26;;;;;;;;;;;21.70;75.50;;;;;;5006758;28;19925;-78
2022/10/09 12:16:55;;;;;;;;;;;21.70;75.50;;;;;;5006168;28;19925;-78
2022/10/09 12:19:25;;;;;;;;;;;21.70;75.50;;;;;;5005263;28;19926;-79
2022/10/09 12:21:54;;;;;;;;;;;21.70;75.50;;;;;;5004939;28;19972;-79
2022/10/09 12:24:23;;;;;;;;;;;21.70;75.50;;;;;;5004234;28;20373;-79
2022/10/09 12:26:52;;;;;;;;;;;21.70;75.50;;;;;;5003486;28;20436;-80
2022/10/09 12:29:24;;;;;;;;;;;21.80;75.60;;;;;;5004060;28;20338;-80
2022/10/09 12:31:58;;;;;;;;;;;21.70;75.30;;;;;;5003490;28;20342;-80
2022/10/09 12:34:29;;;;;;;;;;;21.80;75.30;;;;;;5005523;28;19980;-80
2022/10/09 12:37:03;;;;;;;;;;;21.80;75.20;;;;;;5005127;28;19930;-80
2022/10/09 12:39:32;;;;;;;;;;;21.80;75.20;;;;;;5005753;28;19932;-79
2022/10/09 12:42:00;;;;;;;;;;;21.80;75.10;;;;;;5005813;28;19969;-77
2022/10/09 12:44:31;;;;;;;;;;;21.80;75.10;;;;;;5004239;28;19992;-78
2022/10/09 12:47:01;;;;;;;;;;;21.80;75.20;;;;;;5004758;28;19981;-80
2022/10/09 12:49:29;;;;;;;;;;;21.80;75.00;;;;;;5001277;28;19932;-78
2022/10/09 12:51:57;;;;;;;;;;;21.80;74.80;;;;;;4997543;28;19983;-77
2022/10/09 12:54:25;;;;;;;;;;;21.80;74.80;;;;;;4999912;28;19930;-76
2022/10/09 12:56:52;;;;;;;;;;;21.80;74.70;;;;;;5003407;28;19969;-77
2022/10/09 12:59:22;;;;;;;;;;;21.80;74.70;;;;;;5003735;28;19989;-79
2022/10/09 13:01:53;;;;;;;;;;;21.80;74.60;;;;;;5004664;28;20009;-77
2022/10/09 13:04:28;;;;;;;;;;;21.80;74.60;;;;;;5004910;28;19926;-77
2022/10/09 13:06:57;;;;;;;;;;;21.80;74.50;;;;;;5002955;28;19948;-76
2022/10/09 13:09:27;;;;;;;;;;;21.80;74.50;;;;;;5004467;28;19926;-77
2022/10/09 13:11:57;;;;;;;;;;;21.80;74.50;;;;;;5004741;28;19926;-76
2022/10/09 13:14:26;;;;;;;;;;;21.80;74.50;;;;;;5003059;28;19925;-76
2022/10/09 13:16:54;;;;;;;;;;;21.80;74.50;;;;;;5003764;28;19933;-76
2022/10/09 13:19:23;;;;;;;;;;;21.80;74.40;;;;;;5002346;28;19925;-76
2022/10/09 13:22:02;;;;;;;;;;;21.80;74.40;;;;;;5002583;28;19926;-76
2022/10/09 13:24:29;;;;;;;;;;;21.80;74.50;;;;;;5003257;28;19930;-79
2022/10/09 13:26:56;;;;;;;;;;;21.80;74.50;;;;;;5002115;28;19972;-78
2022/10/09 13:29:23;;;;;;;;;;;21.90;75.40;;;;;;4997122;28;20016;-76
2022/10/09 13:31:50;;;;;;;;;;;21.90;74.70;;;;;;4997368;28;20364;-77
2022/10/09 13:34:17;;;;;;;;;;;21.90;74.70;;;;;;4997779;28;19930;-75
2022/10/09 13:36:44;;;;;;;;;;;21.90;74.70;;;;;;4996365;28;20271;-79
2022/10/09 13:39:23;;;;;;;;;;;21.90;74.80;;;;;;5004175;28;19984;-84
2022/10/09 13:41:51;;;;;;;;;;;21.90;74.90;;;;;;4999238;28;20029;-83
2022/10/09 13:44:18;;;;;;;;;;;21.80;74.80;;;;;;4999637;28;19933;-83
2022/10/09 13:46:45;;;;;;;;;;;21.80;74.90;;;;;;5001307;28;19933;-83
2022/10/09 13:49:12;;;;;;;;;;;21.90;75.20;;;;;;4998016;28;20372;-81
2022/10/09 13:51:38;;;;;;;;;;;21.80;75.10;;;;;;4998979;28;19965;-78
2022/10/09 13:54:05;;;;;;;;;;;21.80;75.10;;;;;;4996504;28;19964;-79
2022/10/09 13:56:33;;;;;;;;;;;21.90;75.20;;;;;;4997965;28;19925;-80
2022/10/09 13:59:00;;;;;;;;;;;21.90;75.30;;;;;;4995714;28;19973;-79
2022/10/09 14:01:26;;;;;;;;;;;21.90;75.30;;;;;;4996073;28;19980;-79
2022/10/09 14:03:53;;;;;;;;;;;21.90;75.40;;;;;;4995809;28;19969;-79
2022/10/09 14:06:21;;;;;;;;;;;21.90;75.50;;;;;;4996253;28;20012;-79
2022/10/09 14:08:47;;;;;;;;;;;21.90;75.50;;;;;;4996242;28;19989;-79
2022/10/09 14:11:14;;;;;;;;;;;21.80;75.50;;;;;;4995926;28;20360;-79
2022/10/09 14:13:42;;;;;;;;;;;21.90;75.70;;;;;;4995848;28;20377;-79
2022/10/09 14:16:10;;;;;;;;;;;21.90;75.70;;;;;;4995875;28;19925;-79
2022/10/09 14:18:36;;;;;;;;;;;21.80;75.60;;;;;;4995781;28;19930;-79
2022/10/09 14:21:07;;;;;;;;;;;21.90;75.70;;;;;;4995650;28;19969;-79
2022/10/09 14:23:34;;;;;;;;;;;21.90;75.80;;;;;;4995601;28;19930;-79
2022/10/09 14:26:02;;;;;;;;;;;21.80;75.60;;;;;;4996005;28;19964;-79
2022/10/09 14:28:29;;;;;;;;;;;21.90;75.80;;;;;;4995650;28;19926;-79
2022/10/09 14:30:57;;;;;;;;;;;21.90;75.70;;;;;;4995019;28;19972;-79
2022/10/09 14:33:24;;;;;;;;;;;21.90;75.80;;;;;;4994221;28;20017;-78
2022/10/09 14:35:51;;;;;;;;;;;21.90;75.80;;;;;;4993739;28;19965;-77
2022/10/09 14:38:17;;;;;;;;;;;21.90;75.80;;;;;;4994032;28;20009;-77
2022/10/09 14:40:44;;;;;;;;;;;21.90;75.80;;;;;;4997200;28;19973;-77
2022/10/09 14:43:11;;;;;;;;;;;21.90;75.80;;;;;;4997213;28;20029;-77
2022/10/09 14:45:38;;;;;;;;;;;21.90;75.80;;;;;;4997541;28;19926;-77
2022/10/09 14:48:06;;;;;;;;;;;21.90;75.80;;;;;;4997347;28;20069;-77
2022/10/09 14:50:34;;;;;;;;;;;21.90;75.80;;;;;;4996963;28;20024;-77
2022/10/09 14:53:01;;;;;;;;;;;21.90;75.80;;;;;;4997354;28;19949;-77
2022/10/09 14:55:28;;;;;;;;;;;21.90;75.80;;;;;;4997001;28;20419;-77
2022/10/09 14:57:54;;;;;;;;;;;21.80;75.60;;;;;;4997015;28;20385;-76
2022/10/09 15:00:21;;;;;;;;;;;21.90;75.70;;;;;;4997143;28;19976;-76
2022/10/09 15:02:48;;;;;;;;;;;21.90;75.80;;;;;;4996904;28;19929;-76
2022/10/09 15:05:16;;;;;;;;;;;21.90;75.80;;;;;;4996823;28;19925;-77
2022/10/09 15:07:43;;;;;;;;;;;21.80;75.60;;;;;;4997065;28;19926;-77
2022/10/09 15:10:13;;;;;;;;;;;21.80;75.60;;;;;;4996424;28;20362;-77
2022/10/09 15:12:40;;;;;;;;;;;21.80;75.60;;;;;;4997002;28;20309;-77
2022/10/09 15:15:07;;;;;;;;;;;21.80;75.60;;;;;;4996631;28;20354;-77
2022/10/09 15:17:34;;;;;;;;;;;21.80;75.60;;;;;;4996934;28;20016;-77
2022/10/09 15:20:01;;;;;;;;;;;21.80;75.60;;;;;;4996328;28;19925;-77
2022/10/09 15:22:29;;;;;;;;;;;21.80;75.60;;;;;;4996911;28;19981;-77
2022/10/09 15:24:56;;;;;;;;;;;21.80;75.60;;;;;;4996563;28;20444;-77
2022/10/09 15:27:22;;;;;;;;;;;21.80;75.60;;;;;;4996822;28;19973;-77
2022/10/09 15:29:49;;;;;;;;;;;21.80;75.60;;;;;;4996665;28;19932;-77
2022/10/09 15:32:16;;;;;;;;;;;21.80;75.60;;;;;;4996713;28;19925;-77
2022/10/09 15:34:43;;;;;;;;;;;21.80;75.60;;;;;;4996709;28;20016;-77
2022/10/09 15:37:09;;;;;;;;;;;21.80;75.60;;;;;;4996398;28;19985;-77
2022/10/09 15:39:37;;;;;;;;;;;21.80;75.60;;;;;;4996743;28;19994;-79
2022/10/09 15:42:04;;;;;;;;;;;21.80;75.60;;;;;;4996635;28;20008;-78
2022/10/09 15:44:31;;;;;;;;;;;21.80;75.60;;;;;;4996720;28;19933;-77
2022/10/09 15:46:58;;;;;;;;;;;21.80;75.70;;;;;;4996890;28;20039;-78
2022/10/09 15:49:24;;;;;;;;;;;21.80;75.90;;;;;;4996336;28;19932;-78
2022/10/09 15:51:51;;;;;;;;;;;21.80;76.00;;;;;;4996743;28;20005;-78
2022/10/09 15:54:18;;;;;;;;;;;21.80;76.10;;;;;;4996593;28;19930;-78
2022/10/09 15:56:46;;;;;;;;;;;21.80;76.20;;;;;;4996186;28;20433;-78
2022/10/09 15:59:15;;;;;;;;;;;21.80;76.30;;;;;;4996485;28;20021;-78
2022/10/09 16:01:42;;;;;;;;;;;21.80;76.40;;;;;;4996472;28;19976;-78
2022/10/09 16:04:09;;;;;;;;;;;21.80;76.50;;;;;;4996432;28;20024;-78
2022/10/09 16:06:36;;;;;;;;;;;21.80;76.50;;;;;;4996514;28;19980;-79
2022/10/09 16:09:03;;;;;;;;;;;21.80;76.50;;;;;;4996184;28;20017;-78
2022/10/09 16:11:30;;;;;;;;;;;21.80;76.60;;;;;;4995812;28;20274;-77
2022/10/09 16:13:59;;;;;;;;;;;21.80;76.70;;;;;;4996149;28;20004;-78
2022/10/09 16:16:27;;;;;;;;;;;21.80;76.70;;;;;;4996601;28;19992;-78
2022/10/09 16:18:54;;;;;;;;;;;21.80;76.90;;;;;;4996095;28;19925;-78
2022/10/09 16:21:21;;;;;;;;;;;21.90;77.20;;;;;;4995876;28;20017;-77
2022/10/09 16:23:48;;;;;;;;;;;21.90;77.30;;;;;;4995816;28;20017;-78
2022/10/09 16:26:16;;;;;;;;;;;21.90;77.40;;;;;;4995576;28;20376;-78
2022/10/09 16:28:43;;;;;;;;;;;21.90;77.60;;;;;;4995487;28;20025;-78
2022/10/09 16:31:17;;;;;;;;;;;21.90;77.70;;;;;;4995530;28;19926;-78
2022/10/09 16:33:43;;;;;;;;;;;21.90;77.90;;;;;;4996047;28;20017;-78
2022/10/09 16:36:11;;;;;;;;;;;22.00;78.10;;;;;;4995448;28;19976;-79
2022/10/09 16:38:40;;;;;;;;;;;22.00;78.30;;;;;;4995914;28;19968;-77
2022/10/09 16:41:08;;;;;;;;;;;21.90;78.30;;;;;;4997136;28;20016;-79
2022/10/09 16:43:35;;;;;;;;;;;22.00;78.40;;;;;;4997435;28;19937;-78
2022/10/09 16:46:09;;;;;;;;;;;22.00;78.50;;;;;;4997207;28;19984;-79
2022/10/09 16:48:37;;;;;;;;;;;22.00;78.60;;;;;;4997175;28;20008;-78
2022/10/09 16:51:07;;;;;;;;;;;22.00;78.70;;;;;;4996715;28;20420;-79
2022/10/09 16:53:33;;;;;;;;;;;22.00;78.70;;;;;;4997030;28;20381;-78
2022/10/09 16:56:06;;;;;;;;;;;22.00;78.80;;;;;;4996705;28;20005;-77
2022/10/09 16:58:33;;;;;;;;;;;21.90;78.80;;;;;;4996371;28;19933;-77
2022/10/09 17:01:00;;;;;;;;;;;22.00;79.00;;;;;;4996227;28;19933;-78
2022/10/09 17:03:27;;;;;;;;;;;22.00;79.10;;;;;;4996537;28;20020;-78
2022/10/09 17:05:55;;;;;;;;;;;21.90;79.00;;;;;;4997204;28;20055;-78
2022/10/09 17:08:22;;;;;;;;;;;22.00;79.30;;;;;;4997825;28;19980;-79
2022/10/09 17:10:48;;;;;;;;;;;22.00;79.40;;;;;;4996408;28;19930;-79
2022/10/09 17:13:15;;;;;;;;;;;22.00;79.50;;;;;;4998330;28;20445;-80
2022/10/09 17:15:42;;;;;;;;;;;21.90;79.40;;;;;;4996968;28;20004;-78
2022/10/09 17:18:09;;;;;;;;;;;22.00;79.70;;;;;;4996992;28;19957;-75
2022/10/09 17:20:36;;;;;;;;;;;22.00;79.70;;;;;;4996096;28;19965;-76
2022/10/09 17:23:06;;;;;;;;;;;21.90;79.80;;;;;;4995289;28;20198;-76
2022/10/09 17:25:32;;;;;;;;;;;21.90;79.90;;;;;;4996304;28;20005;-76
2022/10/09 17:27:59;;;;;;;;;;;22.00;80.10;;;;;;4996376;28;19973;-76
2022/10/09 17:30:26;;;;;;;;;;;22.00;80.20;;;;;;4996480;28;20023;-76
2022/10/09 17:32:52;;;;;;;;;;;21.90;80.20;;;;;;4995284;28;19976;-76
2022/10/09 17:35:19;;;;;;;;;;;21.90;80.30;;;;;;4994746;28;20369;-76
2022/10/09 17:37:46;;;;;;;;;;;21.90;80.50;;;;;;4994895;28;20299;-76
2022/10/09 17:40:14;;;;;;;;;;;21.90;80.60;;;;;;4995077;28;20103;-76
2022/10/09 17:42:40;;;;;;;;;;;22.00;80.90;;;;;;4995327;28;20025;-76
2022/10/09 17:45:08;;;;;;;;;;;22.00;81.10;;;;;;4995289;28;20025;-76
2022/10/09 17:47:35;;;;;;;;;;;22.00;81.30;;;;;;4995011;28;20021;-75
2022/10/09 17:50:02;;;;;;;;;;;22.00;81.60;;;;;;4994778;28;19925;-76
2022/10/09 17:52:28;;;;;;;;;;;22.00;81.60;;;;;;4995578;28;20008;-76
2022/10/09 17:54:55;;;;;;;;;;;22.00;81.70;;;;;;4994881;28;19965;-75
2022/10/09 17:57:24;;;;;;;;;;;22.00;81.60;;;;;;4995160;28;20020;-75
2022/10/09 17:59:50;;;;;;;;;;;21.90;81.50;;;;;;4995520;28;20033;-75
2022/10/09 18:02:17;;;;;;;;;;;22.00;81.80;;;;;;4995369;28;19992;-75
2022/10/09 18:04:44;;;;;;;;;;;22.00;82.10;;;;;;4994788;28;19925;-76
2022/10/09 18:07:10;;;;;;;;;;;22.00;82.30;;;;;;4994902;28;20024;-76
2022/10/09 18:09:38;;;;;;;;;;;22.00;82.50;;;;;;4994579;28;20457;-75
2022/10/09 18:12:05;;;;;;;;;;;22.00;82.70;;;;;;4995450;28;19992;-77
2022/10/09 18:14:33;;;;;;;;;;;22.00;82.90;;;;;;4999173;28;19975;-76
2022/10/09 18:17:00;;;;;;;;;;;22.00;83.10;;;;;;4999329;28;20025;-76
2022/10/09 18:19:26;;;;;;;;;;;22.00;83.30;;;;;;4998697;28;19965;-76
2022/10/09 18:21:53;;;;;;;;;;;22.00;83.50;;;;;;4998589;28;20465;-76
2022/10/09 18:24:20;;;;;;;;;;;22.00;83.60;;;;;;4998733;28;20358;-76
2022/10/09 18:26:46;;;;;;;;;;;22.00;83.80;;;;;;4999255;28;19969;-76
2022/10/09 18:29:13;;;;;;;;;;;22.00;84.00;;;;;;4999044;28;20020;-76
2022/10/09 18:31:41;;;;;;;;;;;22.00;84.10;;;;;;4999194;28;20020;-77
2022/10/09 18:34:09;;;;;;;;;;;22.00;84.40;;;;;;4998950;28;20098;-76
2022/10/09 18:36:35;;;;;;;;;;;22.00;84.50;;;;;;4999027;28;20013;-77
2022/10/09 18:39:04;;;;;;;;;;;22.00;84.70;;;;;;4998416;28;20020;-77
2022/10/09 18:41:31;;;;;;;;;;;22.00;84.90;;;;;;4998719;28;19969;-77
2022/10/09 18:43:59;;;;;;;;;;;22.00;85.00;;;;;;4998345;28;20348;-76
2022/10/09 18:46:28;;;;;;;;;;;22.00;85.30;;;;;;4998625;28;20016;-76
2022/10/09 18:48:56;;;;;;;;;;;22.00;85.50;;;;;;4998795;28;19968;-77
2022/10/09 18:51:24;;;;;;;;;;;22.00;85.70;;;;;;4998674;28;20020;-77
2022/10/09 18:53:52;;;;;;;;;;;22.00;85.90;;;;;;4998612;28;20016;-76
2022/10/09 18:56:20;;;;;;;;;;;22.00;86.00;;;;;;4998085;28;20484;-76
2022/10/09 18:58:48;;;;;;;;;;;22.00;86.30;;;;;;4998294;28;19992;-77
2022/10/09 19:01:14;;;;;;;;;;;22.00;86.50;;;;;;4998474;28;19926;-76
2022/10/09 19:03:41;;;;;;;;;;;22.00;86.70;;;;;;4998583;28;20017;-76
2022/10/09 19:06:09;;;;;;;;;;;22.00;87.00;;;;;;4998438;28;20017;-76
2022/10/09 19:08:36;;;;;;;;;;;22.00;87.40;;;;;;4997955;28;20020;-76
2022/10/09 19:11:05;;;;;;;;;;;22.00;87.40;;;;;;4996623;28;19925;-76
2022/10/09 19:13:32;;;;;;;;;;;22.00;87.30;;;;;;4997164;28;19992;-75
2022/10/09 19:16:03;;;;;;;;;;;22.00;87.40;;;;;;4996701;28;20386;-76
2022/10/09 19:18:30;;;;;;;;;;;22.00;87.60;;;;;;4997071;28;19984;-76
2022/10/09 19:20:56;;;;;;;;;;;22.00;87.90;;;;;;4996630;28;20429;-76
2022/10/09 19:23:24;;;;;;;;;;;22.00;88.00;;;;;;4996971;28;20029;-75
2022/10/09 19:25:52;;;;;;;;;;;22.00;88.20;;;;;;4996208;28;20032;-76
2022/10/09 19:28:19;;;;;;;;;;;22.00;88.30;;;;;;4996846;28;20025;-75
2022/10/09 19:30:46;;;;;;;;;;;22.00;88.40;;;;;;4996728;28;19926;-75
2022/10/09 19:33:12;;;;;;;;;;;22.00;88.40;;;;;;4996756;28;19925;-75
2022/10/09 19:35:45;;;;;;;;;;;22.00;88.50;;;;;;4996717;28;20055;-75
2022/10/09 19:38:12;;;;;;;;;;;22.00;88.60;;;;;;4996658;28;19926;-75
2022/10/09 19:40:40;;;;;;;;;;;22.00;88.70;;;;;;4996630;28;19926;-75
2022/10/09 19:43:07;;;;;;;;;;;22.00;88.90;;;;;;4996287;28;20354;-75
2022/10/09 19:45:34;;;;;;;;;;;21.90;88.90;;;;;;4996251;28;20017;-75
2022/10/09 19:48:00;;;;;;;;;;;21.90;88.90;;;;;;4996206;28;20360;-75
2022/10/09 19:50:27;;;;;;;;;;;22.00;89.10;;;;;;4996288;28;20020;-75
2022/10/09 19:52:54;;;;;;;;;;;21.90;89.10;;;;;;4996444;28;20024;-76
2022/10/09 19:55:21;;;;;;;;;;;22.00;89.30;;;;;;4996071;28;20301;-76
2022/10/09 19:57:49;;;;;;;;;;;21.90;89.30;;;;;;4996289;28;20024;-76
2022/10/09 20:02:43;;;;;;;;;;;21.90;89.50;;;;;;5033280;28;19925;-71
2022/10/09 20:05:10;;;;;;;;;;;21.90;89.60;;;;;;5035212;28;20451;-71
2022/10/09 20:07:36;;;;;;;;;;;21.90;89.70;;;;;;5035112;28;19932;-71
2022/10/09 20:10:03;;;;;;;;;;;21.90;90.20;;;;;;5035376;28;20019;-71
2022/10/09 20:12:30;;;;;;;;;;;21.90;89.80;;;;;;5016068;28;20292;-71
2022/10/09 20:14:58;;;;;;;;;;;21.90;89.90;;;;;;5015577;28;19925;-71
2022/10/09 20:17:25;;;;;;;;;;;21.90;90.00;;;;;;5015541;28;20360;-71
2022/10/09 20:19:52;;;;;;;;;;;21.90;90.00;;;;;;5015503;28;20019;-70
2022/10/09 20:22:18;;;;;;;;;;;21.90;90.10;;;;;;5015330;28;20027;-70
2022/10/09 20:24:45;;;;;;;;;;;21.90;90.10;;;;;;5015416;28;19926;-71
2022/10/09 20:27:12;;;;;;;;;;;21.90;90.10;;;;;;5015080;28;20024;-71
2022/10/09 20:29:39;;;;;;;;;;;21.90;90.10;;;;;;5015201;28;19995;-71
2022/10/09 20:32:07;;;;;;;;;;;21.90;90.20;;;;;;5015449;28;20008;-72
2022/10/09 20:34:34;;;;;;;;;;;21.90;90.20;;;;;;5015312;28;19926;-71
2022/10/09 20:37:01;;;;;;;;;;;21.90;90.30;;;;;;5014043;28;20024;-71
2022/10/09 20:39:28;;;;;;;;;;;21.90;90.30;;;;;;5015248;28;19933;-71
2022/10/09 20:41:55;;;;;;;;;;;21.90;90.30;;;;;;5014756;28;19963;-71
2022/10/09 20:44:21;;;;;;;;;;;21.90;90.30;;;;;;5015130;28;20016;-71
2022/10/09 20:46:48;;;;;;;;;;;21.90;90.40;;;;;;5014965;28;20158;-71
2022/10/09 20:49:16;;;;;;;;;;;21.90;90.40;;;;;;5014639;28;20377;-71
2022/10/09 20:51:43;;;;;;;;;;;21.80;90.40;;;;;;5014764;28;19967;-71
2022/10/09 20:54:15;;;;;;;;;;;21.90;90.50;;;;;;5014879;28;20345;-71
2022/10/09 20:56:43;;;;;;;;;;;21.90;90.50;;;;;;5014878;28;19926;-71
2022/10/09 20:59:09;;;;;;;;;;;21.90;90.60;;;;;;5014449;28;19976;-71
2022/10/09 21:01:36;;;;;;;;;;;21.90;90.60;;;;;;5014405;28;20383;-71
2022/10/09 21:04:04;;;;;;;;;;;21.80;90.60;;;;;;5014615;28;20401;-71
2022/10/09 21:06:32;;;;;;;;;;;21.90;90.70;;;;;;5014680;28;19933;-71
2022/10/09 21:08:59;;;;;;;;;;;21.80;90.60;;;;;;5014641;28;20000;-71
2022/10/09 21:11:26;;;;;;;;;;;21.90;90.70;;;;;;5014152;28;20355;-71
2022/10/09 21:13:53;;;;;;;;;;;21.80;90.70;;;;;;5014317;28;20408;-71
2022/10/09 21:16:20;;;;;;;;;;;21.80;90.70;;;;;;5014520;28;19969;-71
2022/10/09 21:18:47;;;;;;;;;;;21.80;90.80;;;;;;5014201;28;20370;-71
2022/10/09 21:21:15;;;;;;;;;;;21.80;90.80;;;;;;5014402;28;20008;-71
2022/10/09 21:23:43;;;;;;;;;;;21.80;90.80;;;;;;5014448;28;19961;-71
2022/10/09 21:26:11;;;;;;;;;;;21.80;90.80;;;;;;5014361;28;20017;-71
2022/10/09 21:28:37;;;;;;;;;;;21.80;90.80;;;;;;5014700;28;20258;-72
2022/10/09 21:31:07;;;;;;;;;;;21.80;90.90;;;;;;5014223;28;20321;-71
2022/10/09 21:33:33;;;;;;;;;;;21.80;90.90;;;;;;5014379;28;20037;-72
2022/10/09 21:36:00;;;;;;;;;;;21.80;90.90;;;;;;5014321;28;20020;-72
2022/10/09 21:38:26;;;;;;;;;;;21.80;91.00;;;;;;5014280;28;19926;-72